INFORMACIÓN METAR y TAF
METAR FOR GCXO
ADDS - METARS form results

(2022 UTC 03 August 2021)
Data provider http://aviationweather.gov/metar/data/
 
METAR text: GCXO 032000Z 32017KT 9999 FEW003 SCT010 17/15 Q1020 NOSIG
Conditions at: GCXO (TENERIFE/LOS ROD, ES) observed 2000 UTC 03 August 2021
Temperature: 17.0°C (63°F)
Dewpoint: 15.0°C (59°F) [RH = 88%]
Pressure (altimeter): 30.12 inches Hg (1020.0 mb)
Winds: from the NW (320 degrees) at 20 MPH (17 knots; 8.7 m/s)
Visibility: 6 or more miles (10+ km)
Ceiling: at least 12,000 feet AGL
Clouds: few clouds at 300 feet AGL
scattered clouds at 1000 feet AGL
Weather: no significant weather observed at this time

METAR text: GCXO 031930Z 31016KT 9999 FEW003 SCT010 17/16 Q1020 NOSIG
Conditions at: GCXO (TENERIFE/LOS ROD, ES) observed 1930 UTC 03 August 2021
Temperature: 17.0°C (63°F)
Dewpoint: 16.0°C (61°F) [RH = 94%]
Pressure (altimeter): 30.12 inches Hg (1020.0 mb)
Winds: from the NW (310 degrees) at 18 MPH (16 knots; 8.2 m/s)
Visibility: 6 or more miles (10+ km)
Ceiling: at least 12,000 feet AGL
Clouds: few clouds at 300 feet AGL
scattered clouds at 1000 feet AGL
Weather: no significant weather observed at this time

Forecast for: GCXO (TENERIFE/LOS ROD, ES)
Text: TAF GCXO 031400Z 0315/0415 31017KT 9999 BKN007 TX24/0414Z TN16/0406Z
Forecast period: 1500 UTC 03 August 2021 to 1500 UTC 04 August 2021
Forecast type: FROM: standard forecast or significant change
Winds: from the NW (310 degrees) at 20 MPH (17 knots; 8.7 m/s)
Visibility: 6 or more miles (10+ km)
Ceiling: 700 feet AGL
Clouds: broken clouds at 700 feet AGL
Weather: no significant weather forecast for this period
Text: TEMPO 0315/0319 SCT000
Forecast period: 1500 to 1900 UTC 03 August 2021
Forecast type: TEMPORARY: The following changes expected for less than half the time period
Visibility: missing
Ceiling: at least 12,000 feet AGL
Clouds: scattered clouds at 0 feet AGL
Weather: no significant weather forecast for this period
Text: TEMPO 0318/0410 1500 BCFG BKN002
Forecast period: 1800 UTC 03 August 2021 to 1000 UTC 04 August 2021
Forecast type: TEMPORARY: The following changes expected for less than half the time period
Visibility: 0.93 miles (1.50 km)
Ceiling: 200 feet AGL
Clouds: broken clouds at 200 feet AGL
Weather: BCFG  (patches of fog)

 MAPA DE AEROPUERTO

 INFORMACIÓN DE PISTA
Pista 12 Longitud 11155 ft Ancho 148 ft
Elevación 2060 ft Umbral desplazado 0 ft Rumbo de pista 111
Pista 30 Longitud 11155 ft Ancho 148 ft
Elevación 2002 ft Umbral desplazado 0 ft Rumbo de pista 291

 FRECUANCIAS DEL AEROPUERTO
Tipo APP Nombre APP Frecuencia 119.7 MHZ
Tipo ATIS Nombre ATIS Frecuencia 118.575 MHZ
Tipo GND Nombre GND Frecuencia 121.7 MHZ
Tipo TWR Nombre TWR Frecuencia 118.7 MHZ

 RADIO AYUDAS DEL AEROPUERTO
Tipo VOR-DME Nombre Tenerife Norte Frecuencia 117700 KHZ
Tipo NDB Nombre Tenerife Norte Frecuencia 410 KHZ



Powered by Virtual Airlines Manager [v2.6.2]